sensor_id;sensor_type;location;lat;lon;timestamp;pressure;altitude;pressure_sealevel;temperature;humidity
9740;BME280;4909;42.680;26.324;2024-01-16T00:00:19;97163.88;;;5.33;88.48
9740;BME280;4909;42.680;26.324;2024-01-16T00:02:46;97093.56;;;5.00;88.26
9740;BME280;4909;42.680;26.324;2024-01-16T00:05:14;97165.56;;;5.52;88.18
9740;BME280;4909;42.680;26.324;2024-01-16T00:07:41;97150.09;;;5.46;87.27
9740;BME280;4909;42.680;26.324;2024-01-16T00:10:08;97178.84;;;5.68;87.08
9740;BME280;4909;42.680;26.324;2024-01-16T00:12:36;97171.81;;;5.68;86.95
9740;BME280;4909;42.680;26.324;2024-01-16T00:15:06;97172.28;;;5.59;87.48
9740;BME280;4909;42.680;26.324;2024-01-16T00:17:33;97115.72;;;5.32;87.47
9740;BME280;4909;42.680;26.324;2024-01-16T00:20:00;97185.03;;;5.67;86.83
9740;BME280;4909;42.680;26.324;2024-01-16T00:22:28;97110.38;;;5.15;87.81
9740;BME280;4909;42.680;26.324;2024-01-16T00:24:55;97178.50;;;5.57;88.77
9740;BME280;4909;42.680;26.324;2024-01-16T00:27:22;97167.66;;;5.82;87.98
9740;BME280;4909;42.680;26.324;2024-01-16T00:29:50;97135.19;;;5.64;88.06
9740;BME280;4909;42.680;26.324;2024-01-16T00:32:17;97046.28;;;5.17;88.48
9740;BME280;4909;42.680;26.324;2024-01-16T00:34:44;97099.16;;;5.47;89.01
9740;BME280;4909;42.680;26.324;2024-01-16T00:37:11;97156.66;;;5.74;89.78
9740;BME280;4909;42.680;26.324;2024-01-16T00:39:38;97147.97;;;5.72;89.89
9740;BME280;4909;42.680;26.324;2024-01-16T00:42:05;97151.09;;;5.80;89.19
9740;BME280;4909;42.680;26.324;2024-01-16T00:44:32;97141.03;;;5.71;90.01
9740;BME280;4909;42.680;26.324;2024-01-16T00:47:01;97128.81;;;5.87;89.46
9740;BME280;4909;42.680;26.324;2024-01-16T00:49:30;97105.09;;;5.69;89.78
9740;BME280;4909;42.680;26.324;2024-01-16T00:51:57;97149.69;;;6.08;89.55
9740;BME280;4909;42.680;26.324;2024-01-16T00:54:24;97147.41;;;6.01;89.21
9740;BME280;4909;42.680;26.324;2024-01-16T00:56:51;97152.09;;;6.13;89.24
9740;BME280;4909;42.680;26.324;2024-01-16T00:59:21;97141.31;;;6.18;89.18
9740;BME280;4909;42.680;26.324;2024-01-16T01:01:48;97138.16;;;6.28;89.44
9740;BME280;4909;42.680;26.324;2024-01-16T01:04:16;97115.53;;;6.24;89.00
9740;BME280;4909;42.680;26.324;2024-01-16T01:06:43;97131.63;;;6.35;88.86
9740;BME280;4909;42.680;26.324;2024-01-16T01:09:10;97134.88;;;6.40;88.36
9740;BME280;4909;42.680;26.324;2024-01-16T01:11:37;97130.56;;;6.55;88.13
9740;BME280;4909;42.680;26.324;2024-01-16T01:14:04;97087.38;;;6.42;87.61
9740;BME280;4909;42.680;26.324;2024-01-16T01:16:31;97053.31;;;6.22;88.05
9740;BME280;4909;42.680;26.324;2024-01-16T01:18:58;97123.72;;;6.68;87.03
9740;BME280;4909;42.680;26.324;2024-01-16T01:21:27;97120.00;;;6.72;87.28
9740;BME280;4909;42.680;26.324;2024-01-16T01:23:54;97117.03;;;6.78;86.44
9740;BME280;4909;42.680;26.324;2024-01-16T01:26:21;97121.19;;;6.67;86.89
9740;BME280;4909;42.680;26.324;2024-01-16T01:28:48;97112.66;;;6.62;87.52
9740;BME280;4909;42.680;26.324;2024-01-16T01:31:15;97080.13;;;6.45;88.01
9740;BME280;4909;42.680;26.324;2024-01-16T01:33:42;96998.41;;;5.97;88.40
9740;BME280;4909;42.680;26.324;2024-01-16T01:36:09;97087.72;;;6.51;87.94
9740;BME280;4909;42.680;26.324;2024-01-16T01:38:37;97098.03;;;6.56;88.99
9740;BME280;4909;42.680;26.324;2024-01-16T01:41:04;97108.06;;;6.65;88.27
9740;BME280;4909;42.680;26.324;2024-01-16T01:43:31;97108.63;;;6.72;88.26
9740;BME280;4909;42.680;26.324;2024-01-16T01:46:17;97060.53;;;6.51;87.37
9740;BME280;4909;42.680;26.324;2024-01-16T01:48:46;97105.47;;;6.81;87.13
9740;BME280;4909;42.680;26.324;2024-01-16T01:51:16;97099.34;;;6.80;87.15
9740;BME280;4909;42.680;26.324;2024-01-16T01:53:48;97005.63;;;6.26;86.80
9740;BME280;4909;42.680;26.324;2024-01-16T01:56:18;97096.34;;;6.71;87.77
9740;BME280;4909;42.680;26.324;2024-01-16T01:58:46;97095.31;;;6.58;89.29
9740;BME280;4909;42.680;26.324;2024-01-16T02:01:14;97054.78;;;6.10;90.63
9740;BME280;4909;42.680;26.324;2024-01-16T02:03:43;97095.22;;;6.26;91.34
9740;BME280;4909;42.680;26.324;2024-01-16T02:06:11;97090.31;;;6.36;91.56
9740;BME280;4909;42.680;26.324;2024-01-16T02:08:39;97087.66;;;6.53;90.91
9740;BME280;4909;42.680;26.324;2024-01-16T02:11:07;97085.03;;;6.53;90.16
9740;BME280;4909;42.680;26.324;2024-01-16T02:13:35;97034.84;;;6.22;89.92
9740;BME280;4909;42.680;26.324;2024-01-16T02:16:02;97088.28;;;6.41;90.92
9740;BME280;4909;42.680;26.324;2024-01-16T02:18:31;97088.66;;;6.50;91.56
9740;BME280;4909;42.680;26.324;2024-01-16T02:21:00;97091.22;;;6.52;90.62
9740;BME280;4909;42.680;26.324;2024-01-16T02:23:29;97040.78;;;6.42;90.67
9740;BME280;4909;42.680;26.324;2024-01-16T02:25:57;97018.59;;;6.46;89.39
9740;BME280;4909;42.680;26.324;2024-01-16T02:28:25;97082.63;;;6.97;88.33
9740;BME280;4909;42.680;26.324;2024-01-16T02:30:52;97075.47;;;6.99;87.25
9740;BME280;4909;42.680;26.324;2024-01-16T02:33:19;97088.47;;;7.02;87.27
9740;BME280;4909;42.680;26.324;2024-01-16T02:35:45;97096.25;;;7.05;87.00
9740;BME280;4909;42.680;26.324;2024-01-16T02:38:13;97093.53;;;7.07;86.91
9740;BME280;4909;42.680;26.324;2024-01-16T02:40:41;97095.53;;;7.17;86.64
9740;BME280;4909;42.680;26.324;2024-01-16T02:43:08;97103.03;;;7.09;86.88
9740;BME280;4909;42.680;26.324;2024-01-16T02:45:35;97098.63;;;7.10;87.48
9740;BME280;4909;42.680;26.324;2024-01-16T02:48:02;97104.16;;;7.21;86.72
9740;BME280;4909;42.680;26.324;2024-01-16T02:50:30;97109.25;;;7.24;86.61
9740;BME280;4909;42.680;26.324;2024-01-16T02:52:57;97107.47;;;7.40;85.24
9740;BME280;4909;42.680;26.324;2024-01-16T02:55:24;97109.34;;;7.38;84.99
9740;BME280;4909;42.680;26.324;2024-01-16T02:57:52;97113.28;;;7.31;85.20
9740;BME280;4909;42.680;26.324;2024-01-16T03:00:19;97110.03;;;7.26;85.18
9740;BME280;4909;42.680;26.324;2024-01-16T03:02:48;97100.81;;;7.33;84.27
9740;BME280;4909;42.680;26.324;2024-01-16T03:05:15;97116.41;;;7.37;84.65
9740;BME280;4909;42.680;26.324;2024-01-16T03:07:42;97070.72;;;7.06;84.72
9740;BME280;4909;42.680;26.324;2024-01-16T03:10:09;97116.84;;;7.30;85.07
9740;BME280;4909;42.680;26.324;2024-01-16T03:12:36;97120.94;;;7.20;86.13
9740;BME280;4909;42.680;26.324;2024-01-16T03:15:06;97099.47;;;7.10;86.05
9740;BME280;4909;42.680;26.324;2024-01-16T03:17:33;97117.00;;;7.27;86.03
9740;BME280;4909;42.680;26.324;2024-01-16T03:20:00;97103.97;;;7.24;85.54
9740;BME280;4909;42.680;26.324;2024-01-16T03:22:28;97104.06;;;7.07;86.88
9740;BME280;4909;42.680;26.324;2024-01-16T03:24:55;97127.06;;;7.20;87.26
9740;BME280;4909;42.680;26.324;2024-01-16T03:27:22;97100.22;;;7.12;87.35
9740;BME280;4909;42.680;26.324;2024-01-16T03:29:49;97131.63;;;7.32;86.45
9740;BME280;4909;42.680;26.324;2024-01-16T03:32:18;97133.59;;;7.29;86.94
9740;BME280;4909;42.680;26.324;2024-01-16T03:34:44;97133.88;;;7.40;86.28
9740;BME280;4909;42.680;26.324;2024-01-16T03:37:11;97119.38;;;7.31;85.95
9740;BME280;4909;42.680;26.324;2024-01-16T03:39:38;97139.56;;;7.48;85.85
9740;BME280;4909;42.680;26.324;2024-01-16T03:42:05;97136.16;;;7.30;86.15
9740;BME280;4909;42.680;26.324;2024-01-16T03:44:32;97091.09;;;7.02;86.60
9740;BME280;4909;42.680;26.324;2024-01-16T03:46:59;97119.38;;;7.31;86.12
9740;BME280;4909;42.680;26.324;2024-01-16T03:49:28;97141.53;;;7.29;87.56
9740;BME280;4909;42.680;26.324;2024-01-16T03:51:55;97151.91;;;7.32;88.01
9740;BME280;4909;42.680;26.324;2024-01-16T03:54:22;97102.25;;;7.07;86.98
9740;BME280;4909;42.680;26.324;2024-01-16T03:56:49;97150.56;;;7.40;86.92
9740;BME280;4909;42.680;26.324;2024-01-16T03:59:16;97137.69;;;7.34;85.96
9740;BME280;4909;42.680;26.324;2024-01-16T04:01:43;97161.75;;;6.97;88.27
9740;BME280;4909;42.680;26.324;2024-01-16T04:04:11;97172.66;;;7.07;88.53
9740;BME280;4909;42.680;26.324;2024-01-16T04:06:39;97172.13;;;7.00;89.35
9740;BME280;4909;42.680;26.324;2024-01-16T04:09:07;97179.28;;;7.14;89.44
9740;BME280;4909;42.680;26.324;2024-01-16T04:11:35;97197.25;;;7.23;88.79
9740;BME280;4909;42.680;26.324;2024-01-16T04:14:02;97206.56;;;7.30;88.35
9740;BME280;4909;42.680;26.324;2024-01-16T04:16:29;97212.09;;;7.25;88.75
9740;BME280;4909;42.680;26.324;2024-01-16T04:18:56;97184.38;;;7.01;88.65
9740;BME280;4909;42.680;26.324;2024-01-16T04:21:23;97229.16;;;7.18;88.87
9740;BME280;4909;42.680;26.324;2024-01-16T04:23:51;97130.63;;;6.71;88.53
9740;BME280;4909;42.680;26.324;2024-01-16T04:26:18;97213.69;;;7.28;87.95
9740;BME280;4909;42.680;26.324;2024-01-16T04:28:47;97139.31;;;6.73;88.59
9740;BME280;4909;42.680;26.324;2024-01-16T04:31:14;97225.19;;;7.27;88.99
9740;BME280;4909;42.680;26.324;2024-01-16T04:33:43;97213.69;;;7.28;88.33
9740;BME280;4909;42.680;26.324;2024-01-16T04:36:10;97237.13;;;7.34;88.46
9740;BME280;4909;42.680;26.324;2024-01-16T04:38:37;97202.47;;;6.91;89.35
9740;BME280;4909;42.680;26.324;2024-01-16T04:41:05;97232.28;;;6.42;92.39
9740;BME280;4909;42.680;26.324;2024-01-16T04:43:32;97246.78;;;6.50;94.17
9740;BME280;4909;42.680;26.324;2024-01-16T04:45:59;97232.28;;;6.59;93.41
9740;BME280;4909;42.680;26.324;2024-01-16T04:48:26;97263.75;;;6.79;93.14
9740;BME280;4909;42.680;26.324;2024-01-16T04:50:53;97251.91;;;6.71;92.60
9740;BME280;4909;42.680;26.324;2024-01-16T04:53:20;97248.50;;;6.51;96.08
9740;BME280;4909;42.680;26.324;2024-01-16T04:55:47;97227.00;;;6.59;97.13
9740;BME280;4909;42.680;26.324;2024-01-16T04:58:16;97272.34;;;7.00;98.31
9740;BME280;4909;42.680;26.324;2024-01-16T05:00:44;97241.97;;;7.26;96.25
9740;BME280;4909;42.680;26.324;2024-01-16T05:03:11;97257.00;;;7.57;93.89
9740;BME280;4909;42.680;26.324;2024-01-16T05:05:38;97256.84;;;7.75;91.73
9740;BME280;4909;42.680;26.324;2024-01-16T05:08:05;97293.41;;;7.83;90.70
9740;BME280;4909;42.680;26.324;2024-01-16T05:10:32;97300.97;;;7.89;89.33
9740;BME280;4909;42.680;26.324;2024-01-16T05:12:59;97298.09;;;7.94;89.26
9740;BME280;4909;42.680;26.324;2024-01-16T05:15:27;97264.41;;;7.66;89.17
9740;BME280;4909;42.680;26.324;2024-01-16T05:17:55;97306.69;;;7.81;89.61
9740;BME280;4909;42.680;26.324;2024-01-16T05:20:22;97308.03;;;7.73;90.04
9740;BME280;4909;42.680;26.324;2024-01-16T05:22:49;97313.75;;;7.81;89.67
9740;BME280;4909;42.680;26.324;2024-01-16T05:25:16;97324.63;;;7.75;89.89
9740;BME280;4909;42.680;26.324;2024-01-16T05:27:44;97313.72;;;7.65;89.61
9740;BME280;4909;42.680;26.324;2024-01-16T05:30:11;97285.31;;;7.37;89.68
9740;BME280;4909;42.680;26.324;2024-01-16T05:32:39;97279.22;;;7.20;89.53
9740;BME280;4909;42.680;26.324;2024-01-16T05:35:07;97266.28;;;7.15;88.42
9740;BME280;4909;42.680;26.324;2024-01-16T05:37:35;97319.47;;;7.40;88.02
9740;BME280;4909;42.680;26.324;2024-01-16T05:40:03;97316.97;;;7.37;87.68
9740;BME280;4909;42.680;26.324;2024-01-16T05:42:31;97288.56;;;7.10;86.85
9740;BME280;4909;42.680;26.324;2024-01-16T05:44:58;97317.09;;;7.19;87.21
9740;BME280;4909;42.680;26.324;2024-01-16T05:47:25;97345.81;;;7.25;86.38
9740;BME280;4909;42.680;26.324;2024-01-16T05:49:55;97367.31;;;7.34;86.46
9740;BME280;4909;42.680;26.324;2024-01-16T05:52:22;97359.06;;;7.23;86.65
9740;BME280;4909;42.680;26.324;2024-01-16T05:54:49;97372.34;;;7.39;86.85
9740;BME280;4909;42.680;26.324;2024-01-16T05:57:16;97388.31;;;7.36;87.10
9740;BME280;4909;42.680;26.324;2024-01-16T05:59:43;97371.47;;;7.38;86.64
9740;BME280;4909;42.680;26.324;2024-01-16T06:02:10;97349.31;;;7.25;85.66
9740;BME280;4909;42.680;26.324;2024-01-16T06:04:37;97380.03;;;7.43;85.77
9740;BME280;4909;42.680;26.324;2024-01-16T06:07:06;97362.75;;;7.21;85.05
9740;BME280;4909;42.680;26.324;2024-01-16T06:09:33;97383.72;;;7.57;84.50
9740;BME280;4909;42.680;26.324;2024-01-16T06:12:00;97347.78;;;7.37;84.88
9740;BME280;4909;42.680;26.324;2024-01-16T06:14:29;97380.63;;;7.49;84.79
9740;BME280;4909;42.680;26.324;2024-01-16T06:16:56;97400.09;;;7.46;85.09
9740;BME280;4909;42.680;26.324;2024-01-16T06:19:23;97375.44;;;7.47;84.41
9740;BME280;4909;42.680;26.324;2024-01-16T06:21:50;97385.69;;;7.53;83.64
9740;BME280;4909;42.680;26.324;2024-01-16T06:24:18;97406.75;;;7.70;83.44
9740;BME280;4909;42.680;26.324;2024-01-16T06:26:45;97397.59;;;7.77;83.03
9740;BME280;4909;42.680;26.324;2024-01-16T06:29:12;97391.63;;;7.57;82.57
9740;BME280;4909;42.680;26.324;2024-01-16T06:31:39;97412.56;;;7.77;81.72
9740;BME280;4909;42.680;26.324;2024-01-16T06:34:06;97382.72;;;7.59;81.74
9740;BME280;4909;42.680;26.324;2024-01-16T06:36:34;97433.84;;;7.91;80.79
9740;BME280;4909;42.680;26.324;2024-01-16T06:39:01;97494.41;;;8.11;79.97
9740;BME280;4909;42.680;26.324;2024-01-16T06:41:30;97460.84;;;7.63;79.33
9740;BME280;4909;42.680;26.324;2024-01-16T06:43:56;97492.50;;;7.80;79.34
9740;BME280;4909;42.680;26.324;2024-01-16T06:46:23;97501.03;;;7.85;79.60
9740;BME280;4909;42.680;26.324;2024-01-16T06:48:51;97505.59;;;7.99;77.93
9740;BME280;4909;42.680;26.324;2024-01-16T06:51:18;97524.19;;;7.98;77.40
9740;BME280;4909;42.680;26.324;2024-01-16T06:53:45;97473.31;;;7.77;77.28
9740;BME280;4909;42.680;26.324;2024-01-16T06:56:12;97508.91;;;7.87;75.18
9740;BME280;4909;42.680;26.324;2024-01-16T06:58:40;97522.09;;;7.87;75.71
9740;BME280;4909;42.680;26.324;2024-01-16T07:01:09;97532.13;;;7.98;74.65
9740;BME280;4909;42.680;26.324;2024-01-16T07:03:36;97492.66;;;7.77;73.94
9740;BME280;4909;42.680;26.324;2024-01-16T07:06:03;97553.78;;;8.04;72.87
9740;BME280;4909;42.680;26.324;2024-01-16T07:08:30;97510.13;;;7.80;72.37
9740;BME280;4909;42.680;26.324;2024-01-16T07:10:57;97542.59;;;8.98;68.46
9740;BME280;4909;42.680;26.324;2024-01-16T07:13:24;97513.41;;;10.04;63.58
9740;BME280;4909;42.680;26.324;2024-01-16T07:15:53;97527.94;;;10.98;58.68
9740;BME280;4909;42.680;26.324;2024-01-16T07:18:20;97543.38;;;12.13;54.11
9740;BME280;4909;42.680;26.324;2024-01-16T07:20:47;97486.34;;;12.42;52.01
9740;BME280;4909;42.680;26.324;2024-01-16T07:23:14;97538.00;;;13.51;48.68
9740;BME280;4909;42.680;26.324;2024-01-16T07:25:42;97548.84;;;13.24;47.01
9740;BME280;4909;42.680;26.324;2024-01-16T07:28:09;97511.13;;;12.30;49.63
9740;BME280;4909;42.680;26.324;2024-01-16T07:30:36;97503.63;;;11.04;53.59
9740;BME280;4909;42.680;26.324;2024-01-16T07:33:05;97527.84;;;10.85;54.78
9740;BME280;4909;42.680;26.324;2024-01-16T07:35:32;97482.31;;;10.36;54.19
9740;BME280;4909;42.680;26.324;2024-01-16T07:37:59;97507.59;;;10.42;55.14
9740;BME280;4909;42.680;26.324;2024-01-16T07:40:26;97456.59;;;11.33;52.23
9740;BME280;4909;42.680;26.324;2024-01-16T07:42:53;97521.25;;;12.38;46.32
9740;BME280;4909;42.680;26.324;2024-01-16T07:45:20;97515.25;;;12.85;45.21
9740;BME280;4909;42.680;26.324;2024-01-16T07:47:47;97560.63;;;12.45;45.38
9740;BME280;4909;42.680;26.324;2024-01-16T07:50:16;97494.69;;;11.46;45.93
9740;BME280;4909;42.680;26.324;2024-01-16T07:52:43;97502.97;;;10.74;47.45
9740;BME280;4909;42.680;26.324;2024-01-16T07:55:10;97553.34;;;10.31;49.02
9740;BME280;4909;42.680;26.324;2024-01-16T07:57:37;97447.44;;;9.26;50.59
9740;BME280;4909;42.680;26.324;2024-01-16T08:00:05;97521.75;;;9.23;52.63
9740;BME280;4909;42.680;26.324;2024-01-16T08:02:37;97560.13;;;9.00;52.94
9740;BME280;4909;42.680;26.324;2024-01-16T08:05:05;97605.34;;;9.11;53.60
9740;BME280;4909;42.680;26.324;2024-01-16T08:07:33;97598.94;;;9.15;54.00
9740;BME280;4909;42.680;26.324;2024-01-16T08:10:01;97625.75;;;8.94;54.38
9740;BME280;4909;42.680;26.324;2024-01-16T08:12:28;97609.56;;;8.83;53.17
9740;BME280;4909;42.680;26.324;2024-01-16T08:14:55;97591.59;;;8.89;52.47
9740;BME280;4909;42.680;26.324;2024-01-16T08:17:22;97633.44;;;9.30;51.38
9740;BME280;4909;42.680;26.324;2024-01-16T08:19:49;97643.94;;;9.15;50.32
9740;BME280;4909;42.680;26.324;2024-01-16T08:22:16;97645.97;;;9.10;50.31
9740;BME280;4909;42.680;26.324;2024-01-16T08:24:44;97660.13;;;8.94;51.01
9740;BME280;4909;42.680;26.324;2024-01-16T08:27:11;97649.25;;;8.83;51.31
9740;BME280;4909;42.680;26.324;2024-01-16T08:29:38;97666.28;;;8.61;51.57
9740;BME280;4909;42.680;26.324;2024-01-16T08:32:05;97665.97;;;8.33;52.46
9740;BME280;4909;42.680;26.324;2024-01-16T08:34:32;97671.41;;;8.30;52.54
9740;BME280;4909;42.680;26.324;2024-01-16T08:36:59;97647.22;;;8.03;52.65
9740;BME280;4909;42.680;26.324;2024-01-16T08:39:26;97703.81;;;8.16;52.97
9740;BME280;4909;42.680;26.324;2024-01-16T08:41:55;97638.66;;;7.62;52.96
9740;BME280;4909;42.680;26.324;2024-01-16T08:44:23;97620.44;;;7.39;53.01
9740;BME280;4909;42.680;26.324;2024-01-16T08:46:50;97703.75;;;7.82;53.54
9740;BME280;4909;42.680;26.324;2024-01-16T08:49:17;97692.09;;;7.50;54.00
9740;BME280;4909;42.680;26.324;2024-01-16T08:51:44;97755.97;;;8.13;53.60
9740;BME280;4909;42.680;26.324;2024-01-16T08:54:11;97765.72;;;8.29;52.68
9740;BME280;4909;42.680;26.324;2024-01-16T08:56:38;97773.00;;;8.24;52.63
9740;BME280;4909;42.680;26.324;2024-01-16T08:59:07;97739.31;;;8.47;52.44
9740;BME280;4909;42.680;26.324;2024-01-16T09:01:35;97737.75;;;8.60;51.89
9740;BME280;4909;42.680;26.324;2024-01-16T09:04:02;97801.75;;;9.84;49.38
9740;BME280;4909;42.680;26.324;2024-01-16T09:06:29;97760.69;;;11.42;44.30
9740;BME280;4909;42.680;26.324;2024-01-16T09:08:56;97812.38;;;13.01;40.84
9740;BME280;4909;42.680;26.324;2024-01-16T09:11:22;97778.97;;;13.73;39.47
9740;BME280;4909;42.680;26.324;2024-01-16T09:13:49;97738.34;;;13.70;37.33
9740;BME280;4909;42.680;26.324;2024-01-16T09:16:18;97788.59;;;13.51;38.45
9740;BME280;4909;42.680;26.324;2024-01-16T09:18:45;97785.03;;;12.46;40.71
9740;BME280;4909;42.680;26.324;2024-01-16T09:21:13;97742.56;;;12.17;41.73
9740;BME280;4909;42.680;26.324;2024-01-16T09:23:41;97749.97;;;12.79;39.42
9740;BME280;4909;42.680;26.324;2024-01-16T09:26:09;97772.56;;;13.25;38.80
9740;BME280;4909;42.680;26.324;2024-01-16T09:28:36;97785.09;;;13.11;38.90
9740;BME280;4909;42.680;26.324;2024-01-16T09:31:06;97777.16;;;13.36;38.20
9740;BME280;4909;42.680;26.324;2024-01-16T09:33:35;97774.91;;;13.17;39.02
9740;BME280;4909;42.680;26.324;2024-01-16T09:36:04;97767.03;;;13.16;38.96
9740;BME280;4909;42.680;26.324;2024-01-16T09:38:31;97772.84;;;12.69;39.46
9740;BME280;4909;42.680;26.324;2024-01-16T09:40:58;97761.09;;;12.19;40.47
9740;BME280;4909;42.680;26.324;2024-01-16T09:43:26;97782.50;;;11.89;41.11
9740;BME280;4909;42.680;26.324;2024-01-16T09:45:55;97771.75;;;11.62;41.36
9740;BME280;4909;42.680;26.324;2024-01-16T09:48:22;97775.38;;;11.47;42.30
9740;BME280;4909;42.680;26.324;2024-01-16T09:50:51;97789.03;;;11.55;42.06
9740;BME280;4909;42.680;26.324;2024-01-16T09:53:18;97809.53;;;11.53;42.50
9740;BME280;4909;42.680;26.324;2024-01-16T09:55:45;97786.59;;;10.64;43.67
9740;BME280;4909;42.680;26.324;2024-01-16T09:58:14;97804.00;;;10.23;45.40
9740;BME280;4909;42.680;26.324;2024-01-16T10:00:42;97771.00;;;9.97;45.69
9740;BME280;4909;42.680;26.324;2024-01-16T10:03:11;97755.06;;;9.66;46.21
9740;BME280;4909;42.680;26.324;2024-01-16T10:05:39;97767.72;;;9.76;46.83
9740;BME280;4909;42.680;26.324;2024-01-16T10:08:09;97769.41;;;9.62;46.43
9740;BME280;4909;42.680;26.324;2024-01-16T10:10:36;97764.53;;;9.54;45.93
9740;BME280;4909;42.680;26.324;2024-01-16T10:13:03;97718.41;;;9.25;44.63
9740;BME280;4909;42.680;26.324;2024-01-16T10:15:31;97785.63;;;9.55;45.43
9740;BME280;4909;42.680;26.324;2024-01-16T10:17:58;97824.63;;;9.36;45.28
9740;BME280;4909;42.680;26.324;2024-01-16T10:20:32;97838.69;;;9.54;44.50
9740;BME280;4909;42.680;26.324;2024-01-16T10:22:59;97817.75;;;9.49;44.56
9740;BME280;4909;42.680;26.324;2024-01-16T10:25:30;97829.78;;;9.72;44.27
9740;BME280;4909;42.680;26.324;2024-01-16T10:28:04;97761.63;;;9.10;43.69
9740;BME280;4909;42.680;26.324;2024-01-16T10:30:33;97766.31;;;9.05;43.84
9740;BME280;4909;42.680;26.324;2024-01-16T10:33:12;97637.81;;;7.98;44.71
9740;BME280;4909;42.680;26.324;2024-01-16T10:35:40;97794.06;;;8.96;44.40
9740;BME280;4909;42.680;26.324;2024-01-16T10:38:07;97832.53;;;9.03;44.61
9740;BME280;4909;42.680;26.324;2024-01-16T10:40:35;97813.13;;;9.20;44.17
9740;BME280;4909;42.680;26.324;2024-01-16T10:43:04;97753.25;;;8.85;43.16
9740;BME280;4909;42.680;26.324;2024-01-16T10:45:32;97794.03;;;9.31;42.85
9740;BME280;4909;42.680;26.324;2024-01-16T10:48:03;97827.28;;;9.69;42.34
9740;BME280;4909;42.680;26.324;2024-01-16T10:50:31;97781.88;;;9.44;40.01
9740;BME280;4909;42.680;26.324;2024-01-16T10:53:00;97848.44;;;9.86;41.15
9740;BME280;4909;42.680;26.324;2024-01-16T10:55:28;97869.97;;;9.80;40.23
9740;BME280;4909;42.680;26.324;2024-01-16T10:57:58;97859.19;;;9.68;40.16
9740;BME280;4909;42.680;26.324;2024-01-16T11:00:27;97833.38;;;9.71;39.77
9740;BME280;4909;42.680;26.324;2024-01-16T11:02:59;97823.81;;;9.84;39.06
9740;BME280;4909;42.680;26.324;2024-01-16T11:05:28;97874.88;;;10.03;38.89
9740;BME280;4909;42.680;26.324;2024-01-16T11:07:59;97864.88;;;9.60;38.38
9740;BME280;4909;42.680;26.324;2024-01-16T11:10:31;97906.38;;;9.59;39.54
9740;BME280;4909;42.680;26.324;2024-01-16T11:13:00;97845.13;;;9.66;39.61
9740;BME280;4909;42.680;26.324;2024-01-16T11:15:28;97862.34;;;9.74;38.39
9740;BME280;4909;42.680;26.324;2024-01-16T11:17:55;97857.97;;;9.73;38.63
9740;BME280;4909;42.680;26.324;2024-01-16T11:20:24;97870.56;;;9.85;38.66
9740;BME280;4909;42.680;26.324;2024-01-16T11:22:52;97856.53;;;9.68;38.83
9740;BME280;4909;42.680;26.324;2024-01-16T11:25:31;97845.25;;;9.47;38.69
9740;BME280;4909;42.680;26.324;2024-01-16T11:28:07;97828.78;;;9.07;39.20
9740;BME280;4909;42.680;26.324;2024-01-16T11:30:35;97878.00;;;9.29;39.42
9740;BME280;4909;42.680;26.324;2024-01-16T11:33:02;97898.22;;;9.47;39.91
9740;BME280;4909;42.680;26.324;2024-01-16T11:35:34;97858.13;;;9.20;40.85
9740;BME280;4909;42.680;26.324;2024-01-16T11:38:06;97895.81;;;9.42;40.46
9740;BME280;4909;42.680;26.324;2024-01-16T11:40:35;97917.69;;;9.46;41.85
9740;BME280;4909;42.680;26.324;2024-01-16T11:43:37;97870.22;;;9.08;42.23
9740;BME280;4909;42.680;26.324;2024-01-16T11:46:05;97931.41;;;9.37;42.68
9740;BME280;4909;42.680;26.324;2024-01-16T11:48:33;97887.03;;;9.07;42.25
9740;BME280;4909;42.680;26.324;2024-01-16T11:51:00;97915.13;;;9.27;42.62
9740;BME280;4909;42.680;26.324;2024-01-16T11:53:34;97921.22;;;9.29;43.30
9740;BME280;4909;42.680;26.324;2024-01-16T11:56:34;97915.75;;;9.15;43.26
9740;BME280;4909;42.680;26.324;2024-01-16T11:59:27;97859.66;;;8.72;43.78
9740;BME280;4909;42.680;26.324;2024-01-16T12:02:10;97900.84;;;8.78;44.34
9740;BME280;4909;42.680;26.324;2024-01-16T12:04:39;97844.38;;;8.43;44.37
9740;BME280;4909;42.680;26.324;2024-01-16T12:07:06;97909.00;;;8.73;45.03
9740;BME280;4909;42.680;26.324;2024-01-16T12:09:33;97881.06;;;8.68;44.90
9740;BME280;4909;42.680;26.324;2024-01-16T12:12:01;97870.91;;;8.42;45.30
9740;BME280;4909;42.680;26.324;2024-01-16T12:14:32;97899.44;;;8.52;45.83
9740;BME280;4909;42.680;26.324;2024-01-16T12:17:11;97902.72;;;8.57;45.91
9740;BME280;4909;42.680;26.324;2024-01-16T12:19:39;97842.00;;;8.18;45.67
9740;BME280;4909;42.680;26.324;2024-01-16T12:22:08;97870.25;;;8.18;46.17
9740;BME280;4909;42.680;26.324;2024-01-16T12:24:36;97902.06;;;8.35;46.22
9740;BME280;4909;42.680;26.324;2024-01-16T12:27:04;97928.75;;;8.48;46.20
9740;BME280;4909;42.680;26.324;2024-01-16T12:29:32;97872.25;;;8.13;46.26
9740;BME280;4909;42.680;26.324;2024-01-16T12:32:09;97899.16;;;8.02;45.51
9740;BME280;4909;42.680;26.324;2024-01-16T12:34:44;97970.63;;;8.57;45.29
9740;BME280;4909;42.680;26.324;2024-01-16T12:37:12;97948.63;;;8.38;44.04
9740;BME280;4909;42.680;26.324;2024-01-16T12:39:39;97939.66;;;8.42;44.66
9740;BME280;4909;42.680;26.324;2024-01-16T12:42:07;97953.31;;;8.33;43.78
9740;BME280;4909;42.680;26.324;2024-01-16T12:44:38;97973.22;;;8.40;44.10
9740;BME280;4909;42.680;26.324;2024-01-16T12:47:06;97991.16;;;8.33;45.00
9740;BME280;4909;42.680;26.324;2024-01-16T12:49:40;97989.91;;;8.21;44.48
9740;BME280;4909;42.680;26.324;2024-01-16T12:52:15;98017.72;;;8.10;44.06
9740;BME280;4909;42.680;26.324;2024-01-16T12:54:43;98023.28;;;8.04;43.57
9740;BME280;4909;42.680;26.324;2024-01-16T12:57:16;98021.38;;;7.87;43.30
9740;BME280;4909;42.680;26.324;2024-01-16T12:59:47;98040.13;;;7.81;43.34
9740;BME280;4909;42.680;26.324;2024-01-16T13:02:21;98046.53;;;7.75;43.03
9740;BME280;4909;42.680;26.324;2024-01-16T13:04:53;98004.94;;;7.40;42.57
9740;BME280;4909;42.680;26.324;2024-01-16T13:07:24;98055.84;;;7.64;42.70
9740;BME280;4909;42.680;26.324;2024-01-16T13:10:05;98060.56;;;7.77;42.67
9740;BME280;4909;42.680;26.324;2024-01-16T13:12:33;98068.47;;;7.77;42.66
9740;BME280;4909;42.680;26.324;2024-01-16T13:15:03;98064.50;;;7.67;42.05
9740;BME280;4909;42.680;26.324;2024-01-16T13:17:32;98063.84;;;7.82;42.02
9740;BME280;4909;42.680;26.324;2024-01-16T13:19:59;98032.56;;;7.73;42.54
9740;BME280;4909;42.680;26.324;2024-01-16T13:22:26;98066.03;;;7.73;41.64
9740;BME280;4909;42.680;26.324;2024-01-16T13:24:53;98045.53;;;7.58;41.96